createdAt,value
2022-10-04T00:01:07.867Z,1.00
2022-10-04T00:04:10.257Z,0.90
2022-10-04T00:07:12.404Z,0.80
2022-10-04T00:10:14.949Z,0.80
2022-10-04T00:13:17.285Z,0.93
2022-10-04T00:16:19.856Z,0.90
2022-10-04T00:19:22.411Z,0.90
2022-10-04T00:22:24.976Z,0.90
2022-10-04T00:25:27.516Z,0.90
2022-10-04T00:28:30.245Z,1.00
2022-10-04T00:31:33.278Z,1.10
2022-10-04T00:34:36.508Z,1.10
2022-10-04T00:37:39.647Z,0.90
2022-10-04T00:40:41.999Z,0.80
2022-10-04T00:43:44.569Z,0.93
2022-10-04T00:46:47.030Z,1.00
2022-10-04T00:49:49.815Z,0.80
2022-10-04T00:52:52.178Z,1.00
2022-10-04T00:55:55.105Z,1.10
2022-10-04T00:58:58.588Z,0.90
2022-10-04T01:02:01.377Z,0.70
2022-10-04T01:05:03.527Z,0.90
2022-10-04T01:08:06.428Z,0.80
2022-10-04T01:11:09.525Z,0.90
2022-10-04T01:14:12.333Z,1.00
2022-10-04T01:17:14.805Z,0.93
2022-10-04T01:20:17.662Z,1.00
2022-10-04T01:23:20.548Z,0.90
2022-10-04T01:26:23.331Z,1.00
2022-10-04T01:29:26.237Z,1.13
2022-10-04T01:32:28.430Z,0.93
2022-10-04T01:35:31.072Z,0.95
2022-10-04T01:38:33.687Z,0.90
2022-10-04T01:41:36.156Z,1.00
2022-10-04T01:44:38.921Z,1.05
2022-10-04T01:47:41.850Z,1.00
2022-10-04T01:50:44.510Z,0.95
2022-10-04T01:53:47.699Z,1.05
2022-10-04T01:56:50.412Z,1.13
2022-10-04T01:59:53.748Z,1.05
2022-10-04T02:02:56.563Z,1.00
2022-10-04T02:05:59.151Z,1.05
2022-10-04T02:09:01.587Z,0.95
2022-10-04T02:12:05.761Z,1.00
2022-10-04T02:15:10.759Z,0.90
2022-10-04T02:18:14.428Z,1.15
2022-10-04T02:21:17.288Z,0.90
2022-10-04T02:24:19.843Z,0.85
2022-10-04T02:27:22.328Z,1.02
2022-10-04T02:30:25.049Z,1.02
2022-10-04T02:33:27.740Z,0.95
2022-10-04T02:36:30.110Z,1.10
2022-10-04T02:39:32.725Z,1.00
2022-10-04T02:42:35.609Z,1.00
2022-10-04T02:45:38.748Z,0.93
2022-10-04T02:48:41.579Z,1.08
2022-10-04T02:51:44.103Z,1.02
2022-10-04T02:54:47.378Z,1.25
2022-10-04T02:57:49.813Z,1.10
2022-10-04T03:00:52.041Z,1.00
2022-10-04T03:03:54.538Z,1.20
2022-10-04T03:06:56.917Z,1.15
2022-10-04T03:09:59.564Z,1.10
2022-10-04T03:13:02.103Z,1.30
2022-10-04T03:16:04.672Z,1.30
2022-10-04T03:19:06.816Z,1.10
2022-10-04T03:22:08.931Z,1.17
2022-10-04T03:25:11.574Z,1.30
2022-10-04T03:28:14.538Z,1.20
2022-10-04T03:31:17.067Z,1.20
2022-10-04T03:34:19.623Z,1.20
2022-10-04T03:37:22.836Z,1.50
2022-10-04T03:40:25.626Z,1.20
2022-10-04T03:43:28.066Z,1.67
2022-10-04T03:46:30.844Z,1.35
2022-10-04T03:49:33.320Z,1.20
2022-10-04T03:52:36.023Z,1.50
2022-10-04T03:55:38.832Z,1.38
2022-10-04T03:58:41.282Z,1.38
2022-10-04T04:01:44.534Z,1.50
2022-10-04T04:04:47.643Z,1.50
2022-10-04T04:07:50.511Z,1.40
2022-10-04T04:10:53.623Z,1.42
2022-10-04T04:13:56.699Z,1.50
2022-10-04T04:16:59.459Z,1.40
2022-10-04T04:20:07.237Z,1.40
2022-10-04T04:23:10.335Z,1.50
2022-10-04T04:26:13.497Z,1.30
2022-10-04T04:29:16.710Z,1.33
2022-10-04T04:32:19.665Z,1.48
2022-10-04T04:35:22.553Z,1.50
2022-10-04T04:38:25.144Z,1.60
2022-10-04T04:41:27.114Z,1.52
2022-10-04T04:44:29.659Z,1.52
2022-10-04T04:47:32.313Z,1.45
2022-10-04T04:50:35.268Z,1.50
2022-10-04T04:53:38.209Z,1.42
2022-10-04T04:56:40.956Z,1.73
2022-10-04T04:59:43.342Z,1.55
2022-10-04T05:02:46.196Z,1.88
2022-10-04T05:05:48.722Z,1.63
2022-10-04T05:08:51.556Z,1.60
2022-10-04T05:11:54.206Z,1.65
2022-10-04T05:14:56.983Z,1.55
2022-10-04T05:17:59.077Z,1.80
2022-10-04T05:21:01.663Z,1.60
2022-10-04T05:24:04.525Z,1.65
2022-10-04T05:27:07.336Z,1.60
2022-10-04T05:30:10.488Z,1.48
2022-10-04T05:33:12.911Z,1.88
2022-10-04T05:36:15.602Z,1.70
2022-10-04T05:39:18.169Z,1.80
2022-10-04T05:42:20.676Z,1.52
2022-10-04T05:45:23.583Z,1.80
2022-10-04T05:48:26.303Z,1.60
2022-10-04T05:51:29.408Z,1.73
2022-10-04T05:54:33.094Z,1.70
2022-10-04T05:57:35.920Z,1.90
2022-10-04T06:00:38.276Z,1.80
2022-10-04T06:03:40.618Z,1.75
2022-10-04T06:06:43.208Z,1.83
2022-10-04T06:09:45.333Z,2.00
2022-10-04T06:12:48.255Z,2.00
2022-10-04T06:15:51.139Z,1.80
2022-10-04T06:18:53.527Z,1.70
2022-10-04T06:21:55.683Z,1.70
2022-10-04T06:24:58.633Z,1.73
2022-10-04T06:28:07.371Z,1.80
2022-10-04T06:31:15.893Z,1.80
2022-10-04T06:34:18.949Z,1.98
2022-10-04T06:37:22.185Z,1.77
2022-10-04T06:40:24.798Z,1.73
2022-10-04T06:43:28.125Z,1.80
2022-10-04T06:46:31.041Z,1.85
2022-10-04T06:49:33.558Z,1.88
2022-10-04T06:52:36.213Z,1.77
2022-10-04T06:55:38.585Z,1.80
2022-10-04T06:58:40.678Z,1.55
2022-10-04T07:01:43.599Z,1.85
2022-10-04T07:08:08.748Z,1.80
2022-10-04T07:11:12.438Z,1.90
2022-10-04T07:14:14.816Z,2.00
2022-10-04T07:17:17.407Z,1.73
2022-10-04T07:20:20.153Z,2.03
2022-10-04T07:23:28.255Z,1.90
2022-10-04T07:26:31.026Z,2.00
2022-10-04T07:29:33.503Z,1.92
2022-10-04T07:32:36.219Z,1.95
2022-10-04T07:35:39.064Z,2.03
2022-10-04T07:38:41.462Z,2.10
2022-10-04T07:41:44.575Z,1.85
2022-10-04T07:44:47.416Z,2.20
2022-10-04T07:47:49.564Z,2.15
2022-10-04T07:50:52.089Z,2.05
2022-10-04T07:53:54.620Z,1.85
2022-10-04T07:56:57.483Z,1.77
2022-10-04T08:00:00.038Z,2.05
2022-10-04T08:03:02.641Z,1.90
2022-10-04T08:06:04.941Z,2.17
2022-10-04T08:09:07.565Z,2.00
2022-10-04T08:12:10.090Z,1.90
2022-10-04T08:15:12.926Z,1.83
2022-10-04T08:18:15.802Z,2.20
2022-10-04T08:21:18.375Z,2.10
2022-10-04T08:24:21.048Z,1.95
2022-10-04T08:27:23.935Z,2.20
2022-10-04T08:30:27.062Z,2.08
2022-10-04T08:33:29.460Z,2.50
2022-10-04T08:36:31.989Z,1.88
2022-10-04T08:39:35.521Z,2.08
2022-10-04T08:42:38.436Z,2.00
2022-10-04T08:45:41.111Z,1.92
2022-10-04T08:48:43.534Z,1.92
2022-10-04T08:51:46.071Z,1.90
2022-10-04T08:54:48.281Z,2.00
2022-10-04T08:57:51.220Z,2.00
2022-10-04T09:00:53.611Z,2.22
2022-10-04T09:03:56.489Z,2.20
2022-10-04T09:06:58.901Z,2.10
2022-10-04T09:10:01.480Z,2.00
2022-10-04T09:13:04.104Z,1.92
2022-10-04T09:16:06.860Z,2.00
2022-10-04T09:19:10.660Z,1.80
2022-10-04T09:22:13.908Z,2.05
2022-10-04T09:25:16.644Z,2.13
2022-10-04T09:28:19.633Z,2.05
2022-10-04T09:31:22.609Z,2.03
2022-10-04T09:34:25.566Z,1.85
2022-10-04T09:37:28.668Z,2.00
2022-10-04T09:40:31.112Z,2.10
2022-10-04T09:43:33.279Z,2.03
2022-10-04T09:46:35.647Z,2.05
2022-10-04T09:49:38.081Z,2.20
2022-10-04T09:52:40.285Z,2.38
2022-10-04T09:55:42.712Z,2.00
2022-10-04T09:58:45.405Z,2.22
2022-10-04T10:01:48.845Z,2.40
2022-10-04T10:04:51.251Z,2.20
2022-10-04T10:07:53.414Z,1.95
2022-10-04T10:10:56.027Z,1.98
2022-10-04T10:13:58.129Z,1.90
2022-10-04T10:17:00.692Z,2.03
2022-10-04T10:20:03.307Z,1.98
2022-10-04T10:23:06.272Z,1.90
2022-10-04T10:26:09.543Z,1.77
2022-10-04T10:29:12.069Z,1.85
2022-10-04T10:32:14.697Z,2.00
2022-10-04T10:35:18.463Z,2.13
2022-10-04T10:38:20.788Z,1.90
2022-10-04T10:41:23.543Z,1.90
2022-10-04T10:44:26.231Z,1.83
2022-10-04T10:47:29.304Z,1.95
2022-10-04T10:50:32.206Z,2.17
2022-10-04T10:53:34.548Z,1.70
2022-10-04T10:56:37.417Z,2.10
2022-10-04T10:59:40.444Z,1.88
2022-10-04T11:02:49.852Z,1.92
2022-10-04T11:05:53.011Z,1.90
2022-10-04T11:08:55.894Z,2.25
2022-10-04T11:11:58.841Z,2.17
2022-10-04T11:15:02.014Z,2.20
2022-10-04T11:18:04.782Z,2.00
2022-10-04T11:21:07.224Z,2.00
2022-10-04T11:24:10.358Z,2.10
2022-10-04T11:27:13.113Z,2.13
2022-10-04T11:30:16.055Z,2.00
2022-10-04T11:33:18.866Z,1.98
2022-10-04T11:36:20.968Z,2.10
2022-10-04T11:39:23.972Z,2.17
2022-10-04T11:42:26.433Z,2.10
2022-10-04T11:45:29.267Z,2.10
2022-10-04T11:48:32.450Z,1.90
2022-10-04T11:51:35.522Z,2.10
2022-10-04T11:54:39.222Z,2.13
2022-10-04T11:57:42.818Z,1.80
2022-10-04T12:00:45.591Z,2.15
2022-10-04T12:03:48.548Z,2.00
2022-10-04T12:06:51.067Z,1.90
2022-10-04T12:09:56.377Z,2.08
2022-10-04T12:13:02.368Z,2.00
2022-10-04T12:16:05.047Z,1.80
2022-10-04T12:19:07.227Z,2.05
2022-10-04T12:22:10.123Z,1.80
2022-10-04T12:25:12.795Z,1.85
2022-10-04T12:28:16.094Z,2.17
2022-10-04T12:31:19.007Z,1.77
2022-10-04T12:34:21.677Z,1.70
2022-10-04T12:37:23.804Z,1.90
2022-10-04T12:40:25.973Z,1.90
2022-10-04T12:43:28.868Z,2.00
2022-10-04T12:46:31.694Z,1.80
2022-10-04T12:49:34.392Z,1.80
2022-10-04T12:52:36.733Z,1.73
2022-10-04T12:55:39.077Z,2.03
2022-10-04T12:58:42.027Z,1.90
2022-10-04T13:01:44.862Z,1.83
2022-10-04T13:04:47.764Z,1.83
2022-10-04T13:07:51.238Z,1.60
2022-10-04T13:10:53.710Z,1.83
2022-10-04T13:13:56.391Z,1.63
2022-10-04T13:20:22.003Z,1.80
2022-10-04T13:23:24.843Z,1.60
2022-10-04T13:26:27.997Z,1.65
2022-10-04T13:29:31.260Z,1.70
2022-10-04T13:32:34.506Z,1.45
2022-10-04T13:35:37.300Z,1.90
2022-10-04T13:38:39.417Z,1.52
2022-10-04T13:41:42.780Z,1.60
2022-10-04T13:44:45.728Z,1.55
2022-10-04T13:47:48.731Z,1.55
2022-10-04T13:50:51.570Z,1.88
2022-10-04T13:53:54.468Z,1.40
2022-10-04T13:56:57.131Z,1.52
2022-10-04T13:59:59.706Z,1.60
2022-10-04T14:03:02.360Z,1.40
2022-10-04T14:06:05.101Z,1.40
2022-10-04T14:09:07.966Z,1.65
2022-10-04T14:12:10.742Z,1.60
2022-10-04T14:15:13.077Z,1.65
2022-10-04T14:18:16.374Z,1.60
2022-10-04T14:21:19.718Z,1.58
2022-10-04T14:24:22.382Z,1.50
2022-10-04T14:27:24.908Z,1.50
2022-10-04T14:30:27.517Z,1.60
2022-10-04T14:33:29.956Z,1.50
2022-10-04T14:36:33.245Z,1.40
2022-10-04T14:39:36.372Z,1.50
2022-10-04T14:42:39.070Z,1.40
2022-10-04T14:45:41.266Z,1.60
2022-10-04T14:48:43.609Z,1.60
2022-10-04T14:51:46.436Z,1.60
2022-10-04T14:54:48.779Z,1.60
2022-10-04T14:57:51.146Z,1.40
2022-10-04T15:00:54.143Z,1.40
2022-10-04T15:03:57.657Z,1.52
2022-10-04T15:07:01.074Z,1.40
2022-10-04T15:10:03.210Z,1.50
2022-10-04T15:13:10.923Z,1.60
2022-10-04T15:16:14.785Z,1.63
2022-10-04T15:19:17.560Z,1.65
2022-10-04T15:22:20.055Z,1.58
2022-10-04T15:25:22.979Z,1.42
2022-10-04T15:28:26.154Z,1.30
2022-10-04T15:31:29.503Z,1.77
2022-10-04T15:34:32.384Z,1.50
2022-10-04T15:37:34.943Z,1.50
2022-10-04T15:40:37.524Z,1.58
2022-10-04T15:43:39.956Z,1.60
2022-10-04T15:46:43.642Z,1.50
2022-10-04T15:49:46.420Z,1.75
2022-10-04T15:52:49.372Z,1.80
2022-10-04T15:55:52.299Z,1.58
2022-10-04T15:58:54.439Z,1.60
2022-10-04T16:01:57.418Z,1.77
2022-10-04T16:04:59.934Z,1.63
2022-10-04T16:08:03.583Z,1.80
2022-10-04T16:11:06.788Z,1.55
2022-10-04T16:14:09.259Z,1.50
2022-10-04T16:17:11.926Z,1.80
2022-10-04T16:20:14.394Z,1.73
2022-10-04T16:23:17.239Z,1.85
2022-10-04T16:26:20.204Z,1.60
2022-10-04T16:29:22.724Z,1.55
2022-10-04T16:32:25.927Z,2.05
2022-10-04T16:35:28.789Z,1.80
2022-10-04T16:38:30.923Z,1.90
2022-10-04T16:41:33.564Z,1.52
2022-10-04T16:44:35.676Z,1.60
2022-10-04T16:47:37.822Z,1.60
2022-10-04T16:50:40.734Z,1.70
2022-10-04T16:53:43.605Z,1.80
2022-10-04T16:56:46.679Z,1.52
2022-10-04T16:59:49.704Z,1.73
2022-10-04T17:02:51.835Z,1.90
2022-10-04T17:05:54.563Z,1.70
2022-10-04T17:08:57.822Z,1.85
2022-10-04T17:12:00.964Z,1.80
2022-10-04T17:15:03.718Z,1.60
2022-10-04T17:18:06.308Z,1.60
2022-10-04T17:21:09.255Z,1.90
2022-10-04T17:24:11.721Z,1.83
2022-10-04T17:27:14.648Z,1.80
2022-10-04T17:30:17.403Z,1.70
2022-10-04T17:33:20.575Z,1.85
2022-10-04T17:36:23.439Z,1.90
2022-10-04T17:39:26.070Z,1.95
2022-10-04T17:42:28.994Z,2.08
2022-10-04T17:45:31.445Z,1.80
2022-10-04T17:48:34.700Z,1.85
2022-10-04T17:51:36.854Z,1.73
2022-10-04T17:54:39.748Z,1.90
2022-10-04T17:57:42.602Z,1.77
2022-10-04T18:00:45.189Z,1.67
2022-10-04T18:03:48.179Z,1.70
2022-10-04T18:06:51.365Z,1.75
2022-10-04T18:09:54.622Z,1.90
2022-10-04T18:12:57.031Z,1.83
2022-10-04T18:15:59.592Z,1.80
2022-10-04T18:19:02.851Z,2.13
2022-10-04T18:22:06.042Z,1.83
2022-10-04T18:25:09.182Z,2.03
2022-10-04T18:28:12.492Z,2.13
2022-10-04T18:31:15.801Z,2.05
2022-10-04T18:34:18.344Z,2.00
2022-10-04T18:37:21.040Z,1.80
2022-10-04T18:40:23.679Z,1.70
2022-10-04T18:43:26.324Z,2.05
2022-10-04T18:46:28.939Z,1.77
2022-10-04T18:49:31.837Z,1.92
2022-10-04T18:52:34.649Z,1.70
2022-10-04T18:55:37.539Z,1.80
2022-10-04T18:58:40.353Z,2.10
2022-10-04T19:01:42.479Z,2.20
2022-10-04T19:04:44.736Z,1.65
2022-10-04T19:07:47.449Z,2.00
2022-10-04T19:10:50.191Z,1.80
2022-10-04T19:13:52.746Z,1.92
2022-10-04T19:16:55.353Z,2.00
2022-10-04T19:19:58.632Z,2.08
2022-10-04T19:23:01.367Z,1.80
2022-10-04T19:26:30.677Z,2.00
2022-10-04T19:29:26.465Z,2.10
2022-10-04T19:32:29.119Z,2.00
2022-10-04T19:35:32.008Z,2.10
2022-10-04T19:38:35.317Z,1.90
2022-10-04T19:41:38.068Z,1.80
2022-10-04T19:44:40.922Z,1.77
2022-10-04T19:47:44.009Z,2.10
2022-10-04T19:50:46.798Z,2.00
2022-10-04T19:53:49.350Z,1.90
2022-10-04T19:56:52.186Z,2.00
2022-10-04T19:59:54.345Z,2.15
2022-10-04T20:02:56.557Z,2.20
2022-10-04T20:05:59.494Z,2.05
2022-10-04T20:09:03.074Z,2.10
2022-10-04T20:12:06.052Z,2.10
2022-10-04T20:15:08.508Z,2.17
2022-10-04T20:18:11.420Z,1.95
2022-10-04T20:21:14.020Z,2.00
2022-10-04T20:24:16.614Z,2.28
2022-10-04T20:27:19.477Z,1.92
2022-10-04T20:30:21.958Z,2.00
2022-10-04T20:33:27.743Z,2.00
2022-10-04T20:36:32.994Z,1.90
2022-10-04T20:39:36.331Z,1.90
2022-10-04T20:42:39.329Z,2.05
2022-10-04T20:45:42.023Z,2.13
2022-10-04T20:48:44.574Z,2.00
2022-10-04T20:51:47.529Z,1.67
2022-10-04T20:54:50.145Z,1.90
2022-10-04T20:57:53.309Z,2.17
2022-10-04T21:00:55.687Z,2.30
2022-10-04T21:03:58.353Z,2.05
2022-10-04T21:07:00.524Z,2.10
2022-10-04T21:10:02.953Z,1.90
2022-10-04T21:13:05.426Z,2.10
2022-10-04T21:16:08.008Z,2.10
2022-10-04T21:19:10.620Z,2.03
2022-10-04T21:22:13.122Z,2.17
2022-10-04T21:25:15.649Z,2.33
2022-10-04T21:28:18.653Z,2.40
2022-10-04T21:31:21.624Z,2.38
2022-10-04T21:34:41.363Z,2.30
2022-10-04T21:37:47.035Z,2.28
2022-10-04T21:40:49.846Z,2.20
2022-10-04T21:43:52.033Z,2.33
2022-10-04T21:46:54.589Z,2.15
2022-10-04T21:49:57.051Z,1.90
2022-10-04T21:52:59.755Z,2.10
2022-10-04T21:56:03.009Z,2.20
2022-10-04T21:59:05.451Z,2.15
2022-10-04T22:02:08.487Z,2.20
2022-10-04T22:05:11.678Z,2.20
2022-10-04T22:08:15.064Z,2.40
2022-10-04T22:11:17.824Z,2.15
2022-10-04T22:14:20.689Z,2.10
2022-10-04T22:17:23.267Z,2.40
2022-10-04T22:20:26.182Z,1.98
2022-10-04T22:23:28.824Z,2.40
2022-10-04T22:26:31.996Z,2.15
2022-10-04T22:29:34.399Z,2.15
2022-10-04T22:32:36.927Z,2.13
2022-10-04T22:35:39.832Z,2.30
2022-10-04T22:38:42.650Z,2.10
2022-10-04T22:41:45.556Z,2.40
2022-10-04T22:44:48.449Z,2.20
2022-10-04T22:47:50.571Z,2.17
2022-10-04T22:50:53.059Z,2.47
2022-10-04T22:53:56.252Z,2.28
2022-10-04T22:56:59.109Z,2.10
2022-10-04T23:00:01.243Z,2.03
2022-10-04T23:03:03.764Z,2.10
2022-10-04T23:06:06.049Z,2.10
2022-10-04T23:09:09.014Z,1.98
2022-10-04T23:12:11.672Z,2.25
2022-10-04T23:15:14.814Z,2.17
2022-10-04T23:18:17.650Z,2.15
2022-10-04T23:21:20.190Z,2.25
2022-10-04T23:24:22.648Z,2.22
2022-10-04T23:27:25.007Z,2.20
2022-10-04T23:30:27.184Z,2.38
2022-10-04T23:33:30.052Z,2.10
2022-10-04T23:36:32.419Z,2.28
2022-10-04T23:39:34.873Z,2.10
2022-10-04T23:42:37.226Z,2.22
2022-10-04T23:45:39.818Z,2.20
2022-10-04T23:48:42.156Z,2.28
2022-10-04T23:51:44.445Z,2.30
2022-10-04T23:54:47.553Z,2.08
2022-10-04T23:57:50.397Z,2.45
